Time;durP1;ratioP1;P1;durP2;ratioP2;P2;SDS_P1;SDS_P2;PMS_P1;PMS_P2;Temp;Humidity;BMP_temperature;BMP_pressure;BME280_temperature;BME280_humidity;BME280_pressure;Samples;Min_cycle;Max_cycle;Signal;HPM_P1;HPM_P2
2021/06/02 00:01:20;;;;;;;5.05;3.13;;;15.40;1.00;;;;;;5015505;28;20337;-66
2021/06/02 00:04:11;;;;;;;5.03;3.28;;;15.50;1.00;;;;;;5017190;28;20108;-66
2021/06/02 00:07:00;;;;;;;5.57;3.00;;;15.40;1.00;;;;;;5015411;28;20150;-63
2021/06/02 00:09:50;;;;;;;4.13;3.08;;;15.40;1.00;;;;;;5018083;28;20482;-65
2021/06/02 00:12:38;;;;;;;4.28;3.20;;;15.40;1.00;;;;;;5014891;28;20091;-65
2021/06/02 00:15:26;;;;;;;6.75;3.30;;;15.40;1.00;;;;;;5014459;28;20049;-64
2021/06/02 00:18:14;;;;;;;4.97;2.95;;;15.30;1.00;;;;;;5016151;28;20416;-65
2021/06/02 00:21:06;;;;;;;4.43;2.92;;;15.30;1.00;;;;;;5002383;28;20532;-65
2021/06/02 00:23:55;;;;;;;7.75;2.85;;;15.30;1.00;;;;;;5014823;28;20045;-65
2021/06/02 00:26:44;;;;;;;7.88;3.08;;;15.30;1.00;;;;;;5015326;28;20254;-66
2021/06/02 00:29:34;;;;;;;5.75;2.83;;;15.30;1.00;;;;;;5019005;28;20067;-66
2021/06/02 00:32:23;;;;;;;3.97;3.00;;;15.20;1.00;;;;;;5007628;28;20698;-66
2021/06/02 00:35:12;;;;;;;5.28;3.30;;;14.90;1.00;;;;;;5017565;28;20163;-65
2021/06/02 00:38:01;;;;;;;3.47;2.85;;;14.70;1.00;;;;;;4989043;28;20045;-65
2021/06/02 00:40:51;;;;;;;4.25;3.00;;;14.40;1.00;;;;;;5013689;28;20057;-65
2021/06/02 00:43:39;;;;;;;4.43;2.95;;;14.10;1.00;;;;;;5015830;28;20084;-65
2021/06/02 00:46:28;;;;;;;7.22;2.92;;;14.10;1.00;;;;;;5015872;28;20085;-65
2021/06/02 00:49:22;;;;;;;4.90;3.17;;;14.10;1.00;;;;;;5020181;28;20504;-66
2021/06/02 00:52:10;;;;;;;5.00;3.10;;;14.10;1.00;;;;;;5013979;28;20461;-64
2021/06/02 00:55:00;;;;;;;5.03;2.30;;;14.30;1.00;;;;;;5014528;28;20096;-65
2021/06/02 00:57:51;;;;;;;3.58;2.72;;;14.40;1.00;;;;;;5019015;28;20056;-66
2021/06/02 01:00:40;;;;;;;4.80;3.30;;;14.30;1.00;;;;;;5017423;28;20055;-65
2021/06/02 01:03:29;;;;;;;4.65;3.08;;;14.20;1.00;;;;;;5016980;28;20133;-66
2021/06/02 01:06:18;;;;;;;4.20;3.20;;;14.20;1.00;;;;;;5013661;28;20628;-65
2021/06/02 01:09:08;;;;;;;5.15;2.90;;;14.20;1.00;;;;;;5015495;28;20041;-65
2021/06/02 01:11:57;;;;;;;5.13;3.00;;;14.30;1.00;;;;;;5014063;28;20081;-64
2021/06/02 01:14:46;;;;;;;2.97;2.67;;;14.30;1.00;;;;;;5018813;28;20128;-64
2021/06/02 01:17:34;;;;;;;3.80;3.40;;;13.70;1.00;;;;;;5016739;28;20041;-65
2021/06/02 01:20:24;;;;;;;6.32;3.30;;;13.30;1.00;;;;;;5018886;28;20128;-65
2021/06/02 01:23:14;;;;;;;3.97;3.25;;;13.40;1.00;;;;;;5019687;28;20124;-65
2021/06/02 01:26:04;;;;;;;4.68;2.97;;;13.50;1.00;;;;;;5017633;28;20042;-65
2021/06/02 01:28:53;;;;;;;2.83;2.33;;;13.60;1.00;;;;;;5003654;28;20589;-64
2021/06/02 01:32:23;;;;;;;4.55;2.92;;;13.70;1.00;;;;;;5020215;28;20052;-64
2021/06/02 01:35:54;;;;;;;4.05;3.65;;;13.50;1.00;;;;;;5020001;28;20052;-65
2021/06/02 01:39:10;;;;;;;5.40;3.50;;;13.00;1.00;;;;;;4998048;28;20159;-65
2021/06/02 01:42:21;;;;;;;5.60;4.00;;;12.70;1.00;;;;;;5018403;28;20519;-65
2021/06/02 01:45:36;;;;;;;6.72;3.53;;;12.50;1.00;;;;;;5016057;28;20760;-65
2021/06/02 01:48:36;;;;;;;4.85;3.15;;;12.40;1.00;;;;;;5006632;28;20049;-64
2021/06/02 01:51:43;;;;;;;5.22;3.85;;;12.50;1.00;;;;;;5017934;28;20107;-64
2021/06/02 01:55:10;;;;;;;5.68;3.20;;;12.50;1.00;;;;;;5021367;28;21013;-66
2021/06/02 01:58:41;;;;;;;4.95;3.53;;;12.40;1.00;;;;;;5021451;28;20165;-65
2021/06/02 02:01:52;;;;;;;6.65;3.80;;;12.30;1.00;;;;;;5020338;28;20045;-64
2021/06/02 02:05:09;;;;;;;6.78;3.38;;;12.50;1.00;;;;;;5022044;28;20060;-65
2021/06/02 02:08:28;;;;;;;5.07;3.80;;;12.40;1.00;;;;;;5021362;28;20555;-65
2021/06/02 02:11:28;;;;;;;6.07;3.97;;;12.00;1.00;;;;;;5019151;28;20690;-64
2021/06/02 02:14:44;;;;;;;4.53;3.65;;;11.80;1.00;;;;;;5003770;28;20037;-64
2021/06/02 02:17:55;;;;;;;4.65;4.15;;;11.80;1.00;;;;;;5017290;28;20449;-64
2021/06/02 02:20:47;;;;;;;7.72;4.40;;;11.70;1.00;;;;;;5017104;28;20622;-65
2021/06/02 02:23:38;;;;;;;5.38;4.43;;;11.60;1.00;;;;;;5006659;28;20045;-64
2021/06/02 02:26:30;;;;;;;5.60;4.07;;;11.60;1.00;;;;;;5021338;28;20045;-65
2021/06/02 02:29:35;;;;;;;5.30;4.18;;;11.30;1.00;;;;;;5018368;28;20136;-63
2021/06/02 02:32:36;;;;;;;7.93;5.00;;;11.30;1.00;;;;;;5022129;28;20053;-65
2021/06/02 02:35:44;;;;;;;6.70;4.90;;;11.30;1.00;;;;;;5021702;28;20054;-65
2021/06/02 02:38:44;;;;;;;4.90;4.28;;;11.20;1.00;;;;;;5023420;28;20120;-65
2021/06/02 02:42:05;;;;;;;7.28;4.90;;;11.20;1.00;;;;;;5021911;28;20176;-65
2021/06/02 02:45:07;;;;;;;4.60;4.10;;;11.30;1.00;;;;;;4993257;28;20052;-65
2021/06/02 02:48:06;;;;;;;7.07;4.28;;;11.30;1.00;;;;;;5027123;28;20051;-64
2021/06/02 02:51:07;;;;;;;6.07;4.78;;;11.40;1.00;;;;;;5024385;28;20319;-64
2021/06/02 02:54:03;;;;;;;6.70;4.63;;;11.50;1.00;;;;;;5034099;28;20060;-65
2021/06/02 02:57:02;;;;;;;6.03;4.50;;;11.70;1.00;;;;;;5020148;28;20404;-65
2021/06/02 02:59:56;;;;;;;4.85;4.35;;;11.70;1.00;;;;;;5009587;28;20079;-64
2021/06/02 03:02:52;;;;;;;9.10;4.43;;;11.70;1.00;;;;;;5022110;28;20120;-64
2021/06/02 03:05:53;;;;;;;7.57;5.18;;;11.60;1.00;;;;;;5022019;28;20041;-65
2021/06/02 03:08:49;;;;;;;7.10;4.53;;;11.60;1.00;;;;;;5025976;28;20060;-65
2021/06/02 03:11:41;;;;;;;7.22;4.22;;;11.60;1.00;;;;;;5021388;28;20041;-64
2021/06/02 03:14:44;;;;;;;5.50;3.95;;;11.60;1.00;;;;;;5007914;28;20041;-65
2021/06/02 03:17:34;;;;;;;4.82;3.88;;;11.60;1.00;;;;;;5026947;28;20939;-64
2021/06/02 03:20:27;;;;;;;6.25;4.07;;;11.80;1.00;;;;;;5025656;28;20056;-66
2021/06/02 03:23:40;;;;;;;5.32;4.18;;;11.80;1.00;;;;;;5021819;28;20124;-64
2021/06/02 03:26:31;;;;;;;7.10;4.03;;;11.90;1.00;;;;;;5016202;28;20072;-65
2021/06/02 03:29:28;;;;;;;7.13;4.88;;;11.80;1.00;;;;;;5019262;28;20630;-64
2021/06/02 03:32:28;;;;;;;3.85;3.45;;;11.90;1.00;;;;;;5022610;28;20757;-65
2021/06/02 03:35:20;;;;;;;6.25;3.50;;;11.90;1.00;;;;;;5022983;28;20495;-63
2021/06/02 03:38:23;;;;;;;6.40;4.30;;;11.90;1.00;;;;;;5024791;28;20050;-65
2021/06/02 03:41:19;;;;;;;4.72;3.65;;;11.80;1.00;;;;;;5033123;28;20496;-63
2021/06/02 03:44:22;;;;;;;5.28;4.28;;;11.90;1.00;;;;;;5023492;28;20060;-65
2021/06/02 03:47:21;;;;;;;5.00;3.83;;;12.00;1.00;;;;;;5020990;28;20056;-65
2021/06/02 03:50:15;;;;;;;4.88;3.65;;;12.50;1.00;;;;;;5022354;28;20049;-66
2021/06/02 03:53:19;;;;;;;6.85;3.83;;;13.80;1.00;;;;;;5022936;28;20534;-64
2021/06/02 03:56:19;;;;;;;5.80;4.10;;;14.50;1.00;;;;;;5021826;28;20330;-65
2021/06/02 03:59:17;;;;;;;4.93;3.80;;;15.50;1.00;;;;;;5022239;28;20393;-64
2021/06/02 04:02:11;;;;;;;7.63;3.88;;;15.80;1.00;;;;;;5018783;28;20064;-65
2021/06/02 04:05:18;;;;;;;5.80;3.65;;;16.30;1.00;;;;;;5021708;28;20171;-65
2021/06/02 04:08:15;;;;;;;5.55;3.60;;;16.10;1.00;;;;;;5021550;28;20042;-65
2021/06/02 04:11:17;;;;;;;7.05;3.65;;;16.40;1.00;;;;;;5020979;28;20413;-65
2021/06/02 04:14:06;;;;;;;7.85;3.75;;;16.80;1.00;;;;;;5027129;28;20045;-65
2021/06/02 04:16:54;;;;;;;7.50;4.43;;;16.80;1.00;;;;;;5019622;28;20614;-64
2021/06/02 04:19:44;;;;;;;6.30;4.55;;;16.90;1.00;;;;;;5022046;28;20049;-64
2021/06/02 04:22:33;;;;;;;10.60;4.75;;;16.70;1.00;;;;;;5021054;28;20056;-64
2021/06/02 04:25:22;;;;;;;8.45;4.60;;;17.10;1.00;;;;;;5023446;28;20053;-65
2021/06/02 04:28:12;;;;;;;7.53;4.93;;;17.90;1.00;;;;;;5023096;28;20053;-64
2021/06/02 04:31:04;;;;;;;13.63;5.70;;;18.30;1.00;;;;;;5021978;28;20067;-63
2021/06/02 04:33:55;;;;;;;9.05;5.43;;;18.40;1.00;;;;;;5021131;28;20497;-65
2021/06/02 04:36:44;;;;;;;14.07;6.03;;;17.90;1.00;;;;;;5021112;28;20060;-65
2021/06/02 04:39:33;;;;;;;9.48;5.68;;;18.00;1.00;;;;;;5012875;28;20127;-65
2021/06/02 04:42:23;;;;;;;15.82;5.63;;;18.60;1.00;;;;;;5021316;28;20684;-64
2021/06/02 04:45:17;;;;;;;9.23;5.40;;;19.60;1.00;;;;;;5019416;28;20496;-66
2021/06/02 04:48:07;;;;;;;8.73;5.43;;;19.10;1.00;;;;;;5022358;28;20404;-65
2021/06/02 04:51:16;;;;;;;8.70;6.00;;;18.60;1.00;;;;;;5022936;28;20068;-64
2021/06/02 04:54:37;;;;;;;7.45;5.50;;;19.00;1.00;;;;;;5027969;28;20111;-65
2021/06/02 04:58:05;;;;;;;7.88;5.68;;;19.40;1.00;;;;;;5002711;28;20033;-65
2021/06/02 05:01:41;;;;;;;9.45;6.03;;;19.50;1.00;;;;;;5026338;28;20387;-66
2021/06/02 05:05:02;;;;;;;11.82;6.38;;;19.60;1.00;;;;;;5024474;28;20059;-65
2021/06/02 05:08:22;;;;;;;8.63;6.85;;;19.90;1.00;;;;;;5008249;28;20045;-65
2021/06/02 05:11:51;;;;;;;11.60;6.43;;;19.40;1.00;;;;;;5011944;28;20131;-65
2021/06/02 05:15:24;;;;;;;10.38;6.45;;;20.60;1.00;;;;;;5028091;28;20049;-65
2021/06/02 05:18:42;;;;;;;12.93;6.38;;;20.10;1.00;;;;;;5028734;28;20057;-65
2021/06/02 05:22:06;;;;;;;11.48;6.43;;;20.60;1.00;;;;;;5023844;28;20096;-65
2021/06/02 05:25:35;;;;;;;10.18;5.75;;;20.60;1.00;;;;;;5026354;28;20116;-64
2021/06/02 05:29:09;;;;;;;13.30;6.85;;;20.40;1.00;;;;;;5023691;28;20037;-66
2021/06/02 05:32:42;;;;;;;10.05;6.00;;;20.20;1.00;;;;;;5023238;28;20037;-64
2021/06/02 05:35:52;;;;;;;8.02;5.97;;;20.00;1.00;;;;;;4998893;28;20245;-64
2021/06/02 05:39:26;;;;;;;11.52;6.30;;;19.90;1.00;;;;;;5024761;28;20127;-65
2021/06/02 05:42:21;;;;;;;12.45;5.82;;;21.20;1.00;;;;;;5022452;28;20484;-64
2021/06/02 05:45:42;;;;;;;6.68;5.28;;;19.90;1.00;;;;;;5006178;28;20058;-65
2021/06/02 05:49:29;;;;;;;7.50;5.50;;;20.00;1.00;;;;;;5008322;28;20161;-65
2021/06/02 05:52:24;;;;;;;;;;;19.80;1.00;;;;;;4984128;28;20049;-65
2021/06/02 05:55:49;;;;;;;9.32;5.10;;;20.30;1.00;;;;;;5027471;28;19928;-66
2021/06/02 05:59:12;;;;;;;13.68;5.53;;;20.20;1.00;;;;;;5022464;28;20531;-64
2021/06/02 06:02:30;;;;;;;10.55;4.22;;;19.60;1.00;;;;;;5019497;28;20045;-66
2021/06/02 06:05:29;;;;;;;8.25;4.93;;;20.70;1.00;;;;;;5023939;28;20057;-65
2021/06/02 06:09:14;;;;;;;9.80;4.68;;;19.50;1.00;;;;;;5026354;28;20048;-65
2021/06/02 06:12:50;;;;;;;7.35;4.55;;;18.80;1.00;;;;;;5023369;28;20049;-66
2021/06/02 06:16:06;;;;;;;6.35;3.88;;;17.80;1.00;;;;;;5027681;28;20049;-65
2021/06/02 06:19:33;;;;;;;6.33;4.20;;;17.80;1.00;;;;;;5025750;28;20069;-66
2021/06/02 06:22:37;;;;;;;7.93;3.63;;;18.30;1.00;;;;;;5024788;28;20060;-64
2021/06/02 06:25:28;;;;;;;26.27;5.88;;;18.60;1.00;;;;;;5024467;28;20571;-64
2021/06/02 06:28:24;;;;;;;8.73;3.90;;;19.80;1.00;;;;;;5017485;28;20041;-65
2021/06/02 06:31:16;;;;;;;7.97;3.95;;;19.90;1.00;;;;;;5023715;28;20516;-66
2021/06/02 06:34:08;;;;;;;8.10;4.68;;;20.50;1.00;;;;;;5027988;28;20052;-64
2021/06/02 06:36:59;;;;;;;5.95;3.95;;;20.80;1.00;;;;;;5009814;28;20042;-65
2021/06/02 06:39:52;;;;;;;16.15;4.20;;;20.00;1.00;;;;;;5024029;28;20049;-66
2021/06/02 06:42:43;;;;;;;5.37;3.33;;;19.80;1.00;;;;;;5006849;28;20461;-65
2021/06/02 06:45:33;;;;;;;8.25;4.22;;;19.60;1.00;;;;;;5006963;28;20061;-65
2021/06/02 06:48:24;;;;;;;8.10;3.65;;;19.20;1.00;;;;;;5020658;28;20061;-65
2021/06/02 06:51:14;;;;;;;5.38;3.90;;;19.00;1.00;;;;;;5024124;28;20049;-64
2021/06/02 06:54:02;;;;;;;9.85;3.50;;;19.30;1.00;;;;;;5026679;28;20136;-64
2021/06/02 06:56:54;;;;;;;9.07;3.22;;;19.10;1.00;;;;;;5019985;28;20053;-65
2021/06/02 06:59:42;;;;;;;4.75;3.42;;;19.70;1.00;;;;;;5026268;28;20699;-65
2021/06/02 07:02:31;;;;;;;4.70;3.47;;;19.60;1.00;;;;;;5022743;28;20504;-65
2021/06/02 07:05:22;;;;;;;6.32;3.63;;;19.70;1.00;;;;;;5024912;28;20049;-65
2021/06/02 07:08:12;;;;;;;8.15;4.05;;;19.90;1.00;;;;;;5022910;28;20525;-66
2021/06/02 07:11:00;;;;;;;5.65;3.20;;;19.60;1.00;;;;;;5020827;28;20045;-65
2021/06/02 07:13:51;;;;;;;9.80;3.10;;;19.40;1.00;;;;;;5010936;28;20211;-66
2021/06/02 07:16:40;;;;;;;4.15;3.03;;;19.80;1.00;;;;;;5022816;28;20128;-65
2021/06/02 07:19:29;;;;;;;7.80;3.15;;;19.70;1.00;;;;;;5025070;28;20135;-64
2021/06/02 07:22:21;;;;;;;5.57;2.70;;;19.50;1.00;;;;;;5020084;28;20042;-65
2021/06/02 07:25:10;;;;;;;12.25;2.83;;;19.60;1.00;;;;;;5014685;28;20096;-65
2021/06/02 07:28:02;;;;;;;6.50;3.08;;;19.80;1.00;;;;;;5018887;28;20094;-66
2021/06/02 07:30:51;;;;;;;5.30;2.80;;;20.00;1.00;;;;;;5026232;28;20155;-66
2021/06/02 07:33:39;;;;;;;8.90;3.17;;;20.60;1.00;;;;;;5025832;28;20344;-65
2021/06/02 07:36:27;;;;;;;3.15;2.58;;;20.70;1.00;;;;;;5019851;28;20131;-65
2021/06/02 07:39:16;;;;;;;10.68;6.70;;;20.30;1.00;;;;;;5023674;28;20124;-65
2021/06/02 07:42:05;;;;;;;5.18;3.58;;;20.50;1.00;;;;;;5024365;28;20061;-66
2021/06/02 07:44:53;;;;;;;4.70;3.10;;;20.60;1.00;;;;;;5023282;28;20758;-66
2021/06/02 07:47:43;;;;;;;6.03;2.78;;;20.50;1.00;;;;;;5021901;28;20048;-66
2021/06/02 07:50:31;;;;;;;3.50;2.60;;;20.70;1.00;;;;;;5022994;28;20041;-66
2021/06/02 07:53:19;;;;;;;3.58;3.00;;;20.60;1.00;;;;;;5022063;28;20073;-65
2021/06/02 07:56:07;;;;;;;7.35;3.35;;;20.80;1.00;;;;;;5024529;28;20559;-66
2021/06/02 07:58:55;;;;;;;6.50;3.83;;;21.00;1.00;;;;;;5022316;28;20045;-66
2021/06/02 08:01:43;;;;;;;5.55;3.47;;;20.20;1.00;;;;;;5017354;28;20068;-66
2021/06/02 08:04:34;;;;;;;8.50;3.40;;;20.60;1.00;;;;;;5024232;28;20120;-66
2021/06/02 08:07:22;;;;;;;6.18;3.38;;;20.90;1.00;;;;;;5009808;28;20081;-66
2021/06/02 08:10:12;;;;;;;5.63;2.97;;;20.70;1.00;;;;;;5023010;28;20061;-65
2021/06/02 08:13:01;;;;;;;5.93;2.97;;;20.60;1.00;;;;;;5020639;28;20143;-65
2021/06/02 08:15:50;;;;;;;7.82;3.17;;;20.80;1.00;;;;;;5019015;28;20511;-65
2021/06/02 08:18:37;;;;;;;5.90;3.35;;;21.00;1.00;;;;;;5026934;28;20056;-66
2021/06/02 08:21:27;;;;;;;4.88;2.88;;;21.00;1.00;;;;;;5021948;28;20053;-65
2021/06/02 08:24:15;;;;;;;6.97;2.95;;;20.90;1.00;;;;;;5024050;28;20045;-67
2021/06/02 08:27:04;;;;;;;4.95;3.00;;;21.20;1.00;;;;;;5019545;28;20777;-65
2021/06/02 08:29:53;;;;;;;5.70;2.95;;;21.60;1.00;;;;;;5021541;28;20060;-66
2021/06/02 08:32:42;;;;;;;3.95;2.83;;;21.60;1.00;;;;;;5019741;28;20053;-67
2021/06/02 08:35:30;;;;;;;6.45;3.00;;;21.70;1.00;;;;;;5021424;28;20128;-66
2021/06/02 08:38:20;;;;;;;4.10;2.35;;;21.40;1.00;;;;;;5022653;28;20042;-65
2021/06/02 08:41:08;;;;;;;3.72;2.45;;;20.80;1.00;;;;;;5021572;28;20072;-66
2021/06/02 08:43:57;;;;;;;5.25;2.63;;;21.60;1.00;;;;;;5021778;28;20049;-65
2021/06/02 08:46:46;;;;;;;7.32;2.28;;;21.60;1.00;;;;;;5019119;28;20757;-66
2021/06/02 08:49:34;;;;;;;5.45;2.60;;;21.80;1.00;;;;;;5023309;28;20045;-65
2021/06/02 08:52:23;;;;;;;7.72;2.55;;;22.50;1.00;;;;;;5021025;28;20053;-66
2021/06/02 08:55:15;;;;;;;5.13;2.40;;;22.70;1.00;;;;;;5021263;28;20389;-64
2021/06/02 08:58:03;;;;;;;7.57;2.67;;;22.60;1.00;;;;;;5017335;28;20141;-65
2021/06/02 09:00:51;;;;;;;8.63;2.45;;;22.80;1.00;;;;;;5020517;28;20124;-66
2021/06/02 09:03:39;;;;;;;6.30;2.58;;;22.90;1.00;;;;;;5022272;28;20104;-67
2021/06/02 09:06:28;;;;;;;7.78;2.45;;;22.70;1.00;;;;;;5021707;28;20061;-65
2021/06/02 09:09:18;;;;;;;4.60;2.17;;;22.30;1.00;;;;;;5021117;28;20144;-67
2021/06/02 09:12:12;;;;;;;8.57;2.35;;;22.50;1.00;;;;;;5018651;28;20129;-66
2021/06/02 09:15:02;;;;;;;5.32;2.58;;;22.60;1.00;;;;;;5022811;28;20116;-66
2021/06/02 09:17:59;;;;;;;5.15;2.53;;;22.50;1.00;;;;;;5022786;28;20467;-67
2021/06/02 09:20:49;;;;;;;3.38;2.17;;;22.70;1.00;;;;;;5008113;28;20037;-67
2021/06/02 09:23:39;;;;;;;3.13;2.10;;;22.90;1.00;;;;;;5021379;28;20081;-64
2021/06/02 09:26:27;;;;;;;3.42;2.17;;;22.70;1.00;;;;;;5022819;28;20144;-65
2021/06/02 09:29:17;;;;;;;5.28;2.15;;;23.00;1.00;;;;;;5022693;28;20362;-66
2021/06/02 09:32:10;;;;;;;5.10;2.30;;;23.10;1.00;;;;;;5023521;28;20504;-66
2021/06/02 09:35:00;;;;;;;4.57;2.30;;;23.40;1.00;;;;;;5020563;28;20111;-67
2021/06/02 09:37:50;;;;;;;3.22;2.10;;;23.20;1.00;;;;;;5019376;28;20069;-66
2021/06/02 09:40:39;;;;;;;4.88;2.30;;;23.60;1.00;;;;;;5023690;28;20397;-67
2021/06/02 09:43:31;;;;;;;4.30;1.90;;;23.90;1.00;;;;;;5024700;28;20045;-67
2021/06/02 09:46:20;;;;;;;3.60;2.25;;;23.90;1.00;;;;;;5023000;28;20049;-66
2021/06/02 09:49:08;;;;;;;2.90;2.00;;;23.80;1.00;;;;;;4997214;28;20125;-66
2021/06/02 09:51:56;;;;;;;7.03;2.30;;;23.70;1.00;;;;;;5021912;28;20176;-66
2021/06/02 09:54:44;;;;;;;8.57;2.30;;;24.10;1.00;;;;;;5023567;28;20053;-65
2021/06/02 09:57:32;;;;;;;5.03;2.50;;;24.30;1.00;;;;;;5024590;28;20081;-65
2021/06/02 10:00:20;;;;;;;5.15;1.98;;;23.70;1.00;;;;;;5024769;28;20052;-66
2021/06/02 10:03:12;;;;;;;4.50;1.80;;;23.50;1.00;;;;;;5024175;28;20071;-67
2021/06/02 10:06:00;;;;;;;3.78;2.15;;;23.70;1.00;;;;;;5022994;28;20520;-66
2021/06/02 10:08:53;;;;;;;2.05;1.55;;;23.90;1.00;;;;;;5022692;28;20064;-65
2021/06/02 10:11:56;;;;;;;4.15;1.90;;;23.90;1.00;;;;;;5022019;28;20053;-66
2021/06/02 10:14:54;;;;;;;2.88;1.80;;;24.00;1.00;;;;;;5026587;28;20535;-66
2021/06/02 10:17:42;;;;;;;2.85;1.83;;;24.20;1.00;;;;;;5024009;28;20045;-66
2021/06/02 10:20:32;;;;;;;3.03;2.00;;;24.50;1.00;;;;;;5018039;28;20076;-65
2021/06/02 10:23:20;;;;;;;5.25;1.95;;;24.50;1.00;;;;;;5015721;28;20053;-66
2021/06/02 10:26:20;;;;;;;3.28;2.00;;;24.60;1.00;;;;;;5018536;28;20232;-68
2021/06/02 10:29:08;;;;;;;5.63;1.92;;;24.60;1.00;;;;;;5021405;28;20192;-65
2021/06/02 10:31:56;;;;;;;4.88;2.00;;;24.60;1.00;;;;;;5015925;28;20053;-66
2021/06/02 10:34:44;;;;;;;3.58;1.67;;;24.50;1.00;;;;;;5018312;28;20144;-66
2021/06/02 10:37:40;;;;;;;7.78;1.80;;;24.50;1.00;;;;;;5018349;28;20056;-67
2021/06/02 10:40:29;;;;;;;3.90;1.83;;;24.90;1.00;;;;;;5017400;28;20050;-67
2021/06/02 10:43:21;;;;;;;4.05;1.70;;;24.70;1.00;;;;;;5019009;28;20461;-66
2021/06/02 10:46:14;;;;;;;3.78;1.70;;;24.30;1.00;;;;;;5016370;28;20516;-66
2021/06/02 10:49:04;;;;;;;3.83;1.48;;;24.40;1.00;;;;;;5002585;28;20077;-66
2021/06/02 10:51:52;;;;;;;8.85;1.55;;;24.10;1.00;;;;;;5001010;28;20060;-66
2021/06/02 10:54:41;;;;;;;5.13;1.60;;;24.40;1.00;;;;;;5020711;28;20049;-66
2021/06/02 10:57:29;;;;;;;2.28;1.77;;;24.60;1.00;;;;;;5018614;28;20678;-65
2021/06/02 11:00:18;;;;;;;3.72;1.42;;;24.50;1.00;;;;;;5017231;28;20048;-66
2021/06/02 11:03:18;;;;;;;6.13;1.95;;;24.60;1.00;;;;;;5008385;28;20496;-66
2021/06/02 11:06:34;;;;;;;2.20;1.58;;;24.80;1.00;;;;;;5018196;28;20414;-65
2021/06/02 11:09:23;;;;;;;2.13;1.70;;;24.30;1.00;;;;;;5021598;28;20109;-66
2021/06/02 11:12:13;;;;;;;2.30;1.63;;;24.90;1.00;;;;;;5017829;28;20045;-67
2021/06/02 11:15:20;;;;;;;3.30;1.92;;;25.20;1.00;;;;;;5023412;28;20056;-67
2021/06/02 11:18:22;;;;;;;2.10;1.77;;;24.40;1.00;;;;;;5022166;28;20051;-66
2021/06/02 11:21:13;;;;;;;2.42;1.58;;;24.70;1.00;;;;;;5021858;28;20099;-66
2021/06/02 11:24:01;;;;;;;3.80;1.90;;;24.50;1.00;;;;;;5014548;28;20052;-65
2021/06/02 11:26:49;;;;;;;5.40;1.90;;;25.00;1.00;;;;;;5018633;28;20045;-65
2021/06/02 11:30:04;;;;;;;2.05;1.67;;;25.10;1.00;;;;;;5023503;28;20511;-70
2021/06/02 11:33:14;;;;;;;2.22;2.00;;;25.30;1.00;;;;;;5023141;28;20037;-70
2021/06/02 11:36:07;;;;;;;3.67;2.03;;;25.10;1.00;;;;;;5025306;28;20535;-63
2021/06/02 11:38:55;;;;;;;7.25;2.25;;;24.50;1.00;;;;;;5020725;28;20160;-66
2021/06/02 11:41:43;;;;;;;3.83;1.90;;;25.10;1.00;;;;;;5020060;28;20053;-66
2021/06/02 11:44:32;;;;;;;4.97;1.90;;;25.10;1.00;;;;;;5025518;28;20049;-66
2021/06/02 11:47:21;;;;;;;2.72;1.70;;;25.20;1.00;;;;;;5022668;28;20049;-66
2021/06/02 11:50:11;;;;;;;1.95;1.73;;;25.10;1.00;;;;;;5019618;28;20081;-65
2021/06/02 11:53:01;;;;;;;2.88;1.83;;;24.70;1.00;;;;;;5019475;28;20061;-67
2021/06/02 11:55:50;;;;;;;3.00;1.65;;;25.10;1.00;;;;;;5007345;28;20053;-66
2021/06/02 11:58:38;;;;;;;3.20;1.90;;;24.90;1.00;;;;;;5024713;28;20483;-65
2021/06/02 12:01:26;;;;;;;7.00;1.70;;;25.10;1.00;;;;;;5022114;28;20044;-66
2021/06/02 12:04:29;;;;;;;4.88;1.50;;;25.20;1.00;;;;;;4961152;28;20597;-65
2021/06/02 12:07:20;;;;;;;3.53;1.75;;;25.40;1.00;;;;;;4953476;28;20050;-66
2021/06/02 12:10:09;;;;;;;3.95;1.65;;;25.40;1.00;;;;;;4961172;28;20118;-66
2021/06/02 12:12:59;;;;;;;4.97;1.63;;;25.10;1.00;;;;;;4980036;28;20494;-67
2021/06/02 12:15:49;;;;;;;6.35;1.73;;;25.50;1.00;;;;;;4980411;28;20579;-66
2021/06/02 12:18:40;;;;;;;3.95;1.77;;;25.60;1.00;;;;;;4980989;28;20096;-66
2021/06/02 12:21:30;;;;;;;4.15;1.60;;;25.60;1.00;;;;;;4977197;28;20057;-65
2021/06/02 12:24:24;;;;;;;4.25;1.95;;;25.40;1.00;;;;;;4981289;28;20205;-66
2021/06/02 12:27:16;;;;;;;5.18;1.63;;;25.30;1.00;;;;;;4981099;28;20129;-66
2021/06/02 12:30:06;;;;;;;3.50;1.65;;;25.50;1.00;;;;;;4977885;28;20046;-65
2021/06/02 12:32:56;;;;;;;9.20;1.98;;;25.90;1.00;;;;;;4975566;28;20121;-65
2021/06/02 12:35:45;;;;;;;2.67;1.50;;;25.90;1.00;;;;;;5005663;28;20196;-66
2021/06/02 12:38:38;;;;;;;2.03;1.45;;;25.90;1.00;;;;;;5023823;28;20045;-66
2021/06/02 12:41:27;;;;;;;2.60;1.40;;;25.90;1.00;;;;;;5005617;28;20065;-67
2021/06/02 12:44:16;;;;;;;3.55;1.60;;;25.70;1.00;;;;;;5023971;28;20833;-65
2021/06/02 12:47:06;;;;;;;4.95;1.40;;;25.70;1.00;;;;;;5023724;28;20054;-67
2021/06/02 12:49:56;;;;;;;2.00;1.30;;;25.80;1.00;;;;;;5021643;28;20049;-66
2021/06/02 12:52:57;;;;;;;3.38;1.40;;;26.10;1.00;;;;;;5020379;28;20548;-65
2021/06/02 12:55:49;;;;;;;1.58;1.48;;;25.70;1.00;;;;;;5021869;28;20641;-66
2021/06/02 12:58:37;;;;;;;3.30;1.75;;;26.00;1.00;;;;;;5021601;28;20045;-67
2021/06/02 13:01:29;;;;;;;2.70;1.52;;;26.20;1.00;;;;;;5020002;28;20571;-67
2021/06/02 13:04:17;;;;;;;6.20;1.75;;;26.60;1.00;;;;;;5020834;28;20049;-66
2021/06/02 13:07:06;;;;;;;3.53;1.73;;;26.50;1.00;;;;;;5020607;28;20055;-66
2021/06/02 13:09:58;;;;;;;3.08;1.52;;;26.50;1.00;;;;;;5023646;28;20116;-66
2021/06/02 13:12:54;;;;;;;3.80;1.50;;;26.30;1.00;;;;;;5019720;28;20199;-65
2021/06/02 13:15:44;;;;;;;1.42;1.30;;;26.10;1.00;;;;;;5025457;28;20045;-66
2021/06/02 13:18:32;;;;;;;3.45;1.70;;;26.20;1.00;;;;;;5025210;28;20084;-65
2021/06/02 13:21:26;;;;;;;1.88;1.50;;;26.30;1.00;;;;;;5025593;28;20054;-67
2021/06/02 13:24:16;;;;;;;2.50;1.20;;;26.10;1.00;;;;;;5026713;28;20076;-66
2021/06/02 13:27:05;;;;;;;2.67;1.40;;;26.20;1.00;;;;;;5025568;28;20091;-66
2021/06/02 13:30:01;;;;;;;2.40;1.80;;;26.20;1.00;;;;;;5022723;28;20702;-67
2021/06/02 13:32:57;;;;;;;5.28;1.50;;;26.40;1.00;;;;;;5027130;28;20144;-66
2021/06/02 13:35:45;;;;;;;2.88;1.80;;;26.50;1.00;;;;;;5010226;28;20046;-64
2021/06/02 13:38:33;;;;;;;1.73;1.30;;;25.70;1.00;;;;;;5010922;28;20042;-65
2021/06/02 13:41:23;;;;;;;2.20;1.20;;;26.10;1.00;;;;;;5008736;28;20045;-64
2021/06/02 13:44:21;;;;;;;1.77;1.58;;;26.60;1.00;;;;;;5023151;28;20586;-65
2021/06/02 13:47:11;;;;;;;3.08;1.95;;;26.60;1.00;;;;;;5027337;28;20056;-66
2021/06/02 13:50:10;;;;;;;2.38;1.40;;;27.00;1.00;;;;;;5027080;28;20060;-66
2021/06/02 13:53:12;;;;;;;2.70;1.73;;;26.90;1.00;;;;;;5024586;28;20061;-65
2021/06/02 13:56:01;;;;;;;2.35;1.58;;;27.10;1.00;;;;;;5009623;28;20060;-65
2021/06/02 13:59:04;;;;;;;2.22;1.50;;;26.80;1.00;;;;;;5021763;28;20060;-66
2021/06/02 14:01:53;;;;;;;2.65;1.50;;;27.00;1.00;;;;;;5022629;28;20371;-66
2021/06/02 14:04:44;;;;;;;3.78;1.65;;;26.80;1.00;;;;;;5027480;28;20125;-67
2021/06/02 14:07:32;;;;;;;2.60;1.58;;;26.60;1.00;;;;;;5021125;28;20520;-66
2021/06/02 14:10:20;;;;;;;2.08;1.60;;;26.60;1.00;;;;;;5024347;28;20580;-67
2021/06/02 14:13:08;;;;;;;2.47;1.73;;;26.40;1.00;;;;;;5024058;28;20064;-65
2021/06/02 14:15:56;;;;;;;3.50;1.45;;;26.80;1.00;;;;;;5026813;28;20060;-66
2021/06/02 14:18:43;;;;;;;1.50;1.30;;;26.90;1.00;;;;;;5021311;28;20200;-66
2021/06/02 14:21:34;;;;;;;2.40;1.92;;;27.00;1.00;;;;;;5022433;28;20045;-66
2021/06/02 14:24:23;;;;;;;4.75;1.65;;;26.80;1.00;;;;;;5024697;28;20049;-67
2021/06/02 14:27:11;;;;;;;3.05;1.73;;;26.80;1.00;;;;;;5005076;28;20051;-65
2021/06/02 14:29:59;;;;;;;2.10;1.42;;;26.70;1.00;;;;;;5025107;28;20176;-65
2021/06/02 14:32:48;;;;;;;2.15;1.35;;;26.60;1.00;;;;;;5024272;28;20041;-64
2021/06/02 14:35:36;;;;;;;3.65;1.40;;;26.80;1.00;;;;;;5020924;28;20044;-65
2021/06/02 14:38:26;;;;;;;2.08;1.30;;;26.60;1.00;;;;;;5021650;28;20167;-66
2021/06/02 14:41:14;;;;;;;1.58;1.20;;;26.70;1.00;;;;;;5023741;28;20044;-65
2021/06/02 14:44:03;;;;;;;4.07;1.52;;;26.90;1.00;;;;;;5019019;28;20143;-65
2021/06/02 14:46:51;;;;;;;2.80;1.70;;;27.20;1.00;;;;;;5020906;28;20109;-65
2021/06/02 14:49:39;;;;;;;1.55;1.30;;;26.80;1.00;;;;;;5022599;28;20046;-65
2021/06/02 14:52:31;;;;;;;3.38;1.50;;;26.80;1.00;;;;;;5009598;28;20046;-65
2021/06/02 14:55:20;;;;;;;3.97;1.50;;;26.80;1.00;;;;;;5023958;28;20103;-65
2021/06/02 14:58:08;;;;;;;4.63;1.55;;;26.70;1.00;;;;;;5020465;28;20619;-64
2021/06/02 15:00:57;;;;;;;1.95;1.50;;;27.00;1.00;;;;;;5023685;28;20045;-64
2021/06/02 15:03:46;;;;;;;1.45;1.23;;;27.00;1.00;;;;;;5009627;28;20068;-64
2021/06/02 15:06:34;;;;;;;1.65;1.30;;;26.60;1.00;;;;;;5006679;28;20058;-65
2021/06/02 15:09:24;;;;;;;1.63;1.35;;;26.90;1.00;;;;;;4990878;28;20053;-64
2021/06/02 15:12:16;;;;;;;1.20;1.10;;;26.90;1.00;;;;;;5008408;28;20041;-66
2021/06/02 15:15:06;;;;;;;3.50;1.40;;;26.90;1.00;;;;;;4994775;28;20132;-64
2021/06/02 15:18:00;;;;;;;3.35;1.50;;;26.80;1.00;;;;;;5004864;28;20037;-65
2021/06/02 15:20:50;;;;;;;1.60;1.40;;;27.00;1.00;;;;;;4997172;28;20068;-63
2021/06/02 15:23:38;;;;;;;2.67;1.52;;;26.60;1.00;;;;;;5022294;28;20442;-64
2021/06/02 15:26:27;;;;;;;2.05;1.30;;;26.60;1.00;;;;;;5022111;28;20148;-66